Baker, OR

5:14 PM PDT on September 18, 2014 (GMT -0700)
Baker City Municipal | Change Station
CLOSE
Current Station
Airport
Location: Baker,
Elevation: 3373 ft
Nearby Weather Stations

Elev 3373 ft 44.84 °N, 117.81 °W | Updated 21 minutes ago

Partly Cloudy
Partly Cloudy
76 °F
Feels Like 76 °F
N
17
Wind Variable Wind from NNW

Today
High -- | Low -- °F
--% Chance of Precip.
Yesterday
High -- | Low -- °F
Precip. -- in
6:33 AM 6:56 PM
Waning Crescent, 23% visible
Pressure 29.73 in
Visibility 10.0 miles
Clouds Few 9500 ft
Dew Point 42 °F
Humidity 30%
Rainfall 0.00 in
Snow Depth 1 in , 0 in , 0 in
UV 1 out of 12
Pollen 5.30 out of 12
Air Quality Not available.
Flu Activity Not available.
METAR KBKE 182353Z AUTO 34015KT 10SM FEW095 24/06 A2982 RMK AO2 SLP067 T02440056 10289 20239 55000 TSNO

More Conditions Fewer Conditions

Pressure 29.73 in
Visibility 10.0 miles
Clouds Few 9500 ft
Dew Point 42 °F
Humidity 30%
Rainfall 0.00 in
Snow Depth 1 in , 0 in , 0 in
UV 1 out of 12
Pollen 5.30 out of 12
Air Quality Not available.
Flu Activity Not available.
METAR KBKE 182353Z AUTO 34015KT 10SM FEW095 24/06 A2982 RMK AO2 SLP067 T02440056 10289 20239 55000 TSNO

More Conditions Fewer Conditions

10-Day Weather Forecast

Almanac

Astronomy

Sep. 18, 2014 Rise Set
Actual Time 6:33 AM PDT 6:56 PM PDT
Civil Twilight 6:04 AM PDT 7:25 PM PDT
Nautical Twilight 5:29 AM PDT 7:59 PM PDT
Astronomical Twilight 4:54 AM PDT 8:35 PM PDT
Moon 1:20 AM PDT (9/18) 3:59 PM PDT (9/18)
Length of Visible Light 13h 20m
Length of Day
12h 22m
Tomorrow will be 3m 5s shorter.
Waning Crescent, 23% of the Moon is Illuminated
Today
Waning Crescent
Sep 24
New
Oct 1
First Quarter
Oct 8
Full
Oct 15
Last Quarter

Today's Extremes

State Highs State Lows

Community

WunderPhotos

Upload Photos

1,754,501 photos uploaded!

WunderBlogs® & News

Nearby

Snow Depth

Station Depth Elevation
Hogg Pass 1 in 4760 ft
Three Creeks Meadow 0 in 5650 ft
Mud Ridge 0 in 3800 ft
Mckenzie 0 in 4800 ft
Fish Lake 0 in 4665 ft

Earthquake Activity

City Distance Mag. Time & Date
No recent earthquake activity has been reported nearby.
Minimum magnitude displayed is 2.5.

Coastal Water Temperatures

Place Temperature
No Stations Reporting

Nearby Weather Stations